createdAt,value
2017-12-11T00:00:59.799Z,5.80
2017-12-11T00:03:27.300Z,5.80
2017-12-11T00:05:54.732Z,5.80
2017-12-11T00:08:22.947Z,5.90
2017-12-11T00:10:50.416Z,5.90
2017-12-11T00:13:17.872Z,5.90
2017-12-11T00:15:46.197Z,6.00
2017-12-11T00:18:13.631Z,6.00
2017-12-11T00:20:41.877Z,6.10
2017-12-11T00:23:09.431Z,6.20
2017-12-11T00:25:36.902Z,6.20
2017-12-11T00:28:04.335Z,6.30
2017-12-11T00:30:31.804Z,6.30
2017-12-11T00:32:59.243Z,6.20
2017-12-11T00:35:26.709Z,6.20
2017-12-11T00:37:54.189Z,6.30
2017-12-11T00:40:21.649Z,6.20
2017-12-11T00:42:49.132Z,6.20
2017-12-11T00:45:16.564Z,6.30
2017-12-11T00:47:44.081Z,6.20
2017-12-11T00:50:11.516Z,6.20
2017-12-11T00:52:38.949Z,6.20
2017-12-11T00:55:06.397Z,6.20
2017-12-11T00:57:33.825Z,6.20
2017-12-11T01:00:01.422Z,6.20
2017-12-11T01:02:29.656Z,6.20
2017-12-11T01:04:57.116Z,6.20
2017-12-11T01:07:24.581Z,6.30
2017-12-11T01:09:52.813Z,6.30
2017-12-11T01:12:20.244Z,6.30
2017-12-11T01:14:48.475Z,6.30
2017-12-11T01:17:15.932Z,6.30
2017-12-11T01:19:43.506Z,6.30
2017-12-11T01:22:14.926Z,6.30
2017-12-11T01:24:42.382Z,6.30
2017-12-11T01:27:09.832Z,6.30
2017-12-11T01:29:37.276Z,6.30
2017-12-11T01:32:05.493Z,6.30
2017-12-11T01:34:32.937Z,6.30
2017-12-11T01:37:01.152Z,6.20
2017-12-11T01:39:28.603Z,6.20
2017-12-11T01:41:56.845Z,6.20
2017-12-11T01:44:24.315Z,6.20
2017-12-11T01:46:51.772Z,6.20
2017-12-11T01:49:19.240Z,6.10
2017-12-11T01:51:46.702Z,6.20
2017-12-11T01:54:14.924Z,6.20
2017-12-11T01:56:42.365Z,6.20
2017-12-11T01:59:10.583Z,6.20
2017-12-11T02:01:38.007Z,6.20
2017-12-11T02:04:05.477Z,6.30
2017-12-11T02:06:32.967Z,6.30
2017-12-11T02:09:00.428Z,6.30
2017-12-11T02:11:27.918Z,6.30
2017-12-11T02:13:55.381Z,6.30
2017-12-11T02:16:22.837Z,6.40
2017-12-11T02:18:50.278Z,6.40
2017-12-11T02:21:17.737Z,6.40
2017-12-11T02:23:45.962Z,6.40
2017-12-11T02:26:13.495Z,6.40
2017-12-11T02:28:41.704Z,6.40
2017-12-11T02:31:09.159Z,6.40
2017-12-11T02:33:37.391Z,6.40
2017-12-11T02:36:04.839Z,6.40
2017-12-11T02:38:33.047Z,6.50
2017-12-11T02:41:00.509Z,6.40
2017-12-11T02:43:28.709Z,6.50
2017-12-11T02:45:56.177Z,6.50
2017-12-11T02:48:23.792Z,6.50
2017-12-11T02:50:51.244Z,6.50
2017-12-11T02:53:18.695Z,6.50
2017-12-11T02:55:46.901Z,6.50
2017-12-11T02:58:14.349Z,6.50
2017-12-11T03:00:42.549Z,6.60
2017-12-11T03:03:10.780Z,6.50
2017-12-11T03:05:38.235Z,6.40
2017-12-11T03:08:05.668Z,6.50
2017-12-11T03:10:33.172Z,6.40
2017-12-11T03:13:01.406Z,6.40
2017-12-11T03:15:28.853Z,6.40
2017-12-11T03:17:56.290Z,6.30
2017-12-11T03:20:23.784Z,6.20
2017-12-11T03:22:51.988Z,6.30
2017-12-11T03:25:19.448Z,6.20
2017-12-11T03:27:47.643Z,6.10
2017-12-11T03:30:15.865Z,6.20
2017-12-11T03:32:43.483Z,6.20
2017-12-11T03:35:10.951Z,6.20
2017-12-11T03:37:38.408Z,6.00
2017-12-11T03:40:05.880Z,6.10
2017-12-11T03:42:33.428Z,5.90
2017-12-11T03:45:00.879Z,5.70
2017-12-11T03:47:28.322Z,5.60
2017-12-11T03:49:55.771Z,5.70
2017-12-11T03:52:23.259Z,5.70
2017-12-11T03:54:50.700Z,5.50
2017-12-11T03:57:18.959Z,5.80
2017-12-11T03:59:46.387Z,5.80
2017-12-11T04:02:13.823Z,5.80
2017-12-11T04:04:42.052Z,5.50
2017-12-11T04:07:09.494Z,5.50
2017-12-11T04:09:37.711Z,5.60
2017-12-11T04:12:05.159Z,5.60
2017-12-11T04:14:32.622Z,5.70
2017-12-11T04:17:00.176Z,5.60
2017-12-11T04:19:27.635Z,5.80
2017-12-11T04:21:55.096Z,5.70
2017-12-11T04:24:22.554Z,5.50
2017-12-11T04:26:50.016Z,5.40
2017-12-11T04:29:18.234Z,5.40
2017-12-11T04:31:45.751Z,5.40
2017-12-11T04:34:13.199Z,5.30
2017-12-11T04:36:40.656Z,5.40
2017-12-11T04:39:08.084Z,5.50
2017-12-11T04:41:35.567Z,5.60
2017-12-11T04:44:03.004Z,5.70
2017-12-11T04:46:30.463Z,5.80
2017-12-11T04:48:57.934Z,5.80
2017-12-11T04:51:25.363Z,5.80
2017-12-11T04:53:52.815Z,5.70
2017-12-11T04:56:20.277Z,5.80
2017-12-11T04:58:47.764Z,5.80
2017-12-11T05:01:15.175Z,5.70
2017-12-11T05:03:43.409Z,5.90
2017-12-11T05:06:10.849Z,5.90
2017-12-11T05:08:39.060Z,6.00
2017-12-11T05:11:06.527Z,6.00
2017-12-11T05:13:33.968Z,5.90
2017-12-11T05:16:01.487Z,5.80
2017-12-11T05:18:28.956Z,5.90
2017-12-11T05:20:56.407Z,5.90
2017-12-11T05:23:24.644Z,5.90
2017-12-11T05:25:52.081Z,5.90
2017-12-11T05:28:20.329Z,5.90
2017-12-11T05:30:47.789Z,6.00
2017-12-11T05:33:15.230Z,6.00
2017-12-11T05:35:42.664Z,6.00
2017-12-11T05:38:10.142Z,5.90
2017-12-11T05:40:37.595Z,5.90
2017-12-11T05:43:05.047Z,5.80
2017-12-11T05:45:32.504Z,5.80
2017-12-11T05:47:59.980Z,5.80
2017-12-11T05:50:27.433Z,5.90
2017-12-11T05:52:55.656Z,5.90
2017-12-11T05:55:23.111Z,5.90
2017-12-11T05:57:51.334Z,6.10
2017-12-11T06:00:18.796Z,6.00
2017-12-11T06:02:46.223Z,6.20
2017-12-11T06:05:13.763Z,6.30
2017-12-11T06:07:41.213Z,6.30
2017-12-11T06:10:08.675Z,6.40
2017-12-11T06:12:36.868Z,6.20
2017-12-11T06:15:05.095Z,6.30
2017-12-11T06:17:32.540Z,6.30
2017-12-11T06:20:00.752Z,6.30
2017-12-11T06:22:28.224Z,6.30
2017-12-11T06:24:55.839Z,6.20
2017-12-11T06:27:23.292Z,6.10
2017-12-11T06:29:50.792Z,6.10
2017-12-11T06:32:19.057Z,6.30
2017-12-11T06:34:47.202Z,6.30
2017-12-11T06:37:14.652Z,6.40
2017-12-11T06:39:42.088Z,6.40
2017-12-11T06:42:09.676Z,6.30
2017-12-11T06:44:37.114Z,6.30
2017-12-11T06:47:04.560Z,6.40
2017-12-11T06:49:32.000Z,6.40
2017-12-11T06:51:59.459Z,6.50
2017-12-11T06:54:26.895Z,6.50
2017-12-11T06:56:54.347Z,6.40
2017-12-11T06:59:21.823Z,6.40
2017-12-11T07:01:49.270Z,6.30
2017-12-11T07:04:16.744Z,6.40
2017-12-11T07:06:44.225Z,6.40
2017-12-11T07:09:11.690Z,6.50
2017-12-11T07:11:39.125Z,6.60
2017-12-11T07:14:06.571Z,6.50
2017-12-11T07:16:34.015Z,6.50
2017-12-11T07:19:01.607Z,6.40
2017-12-11T07:21:29.363Z,6.40
2017-12-11T07:23:57.505Z,6.50
2017-12-11T07:26:24.993Z,6.50
2017-12-11T07:28:52.456Z,6.40
2017-12-11T07:31:19.915Z,6.50
2017-12-11T07:33:47.396Z,6.60
2017-12-11T07:36:14.860Z,6.60
2017-12-11T07:38:42.297Z,6.60
2017-12-11T07:41:09.748Z,6.60
2017-12-11T07:43:37.190Z,6.60
2017-12-11T07:46:04.648Z,6.60
2017-12-11T07:48:32.098Z,6.50
2017-12-11T07:50:59.558Z,6.50
2017-12-11T07:53:27.748Z,6.50
2017-12-11T07:55:55.969Z,6.40
2017-12-11T07:58:23.416Z,6.40
2017-12-11T08:00:51.632Z,6.40
2017-12-11T08:03:19.104Z,6.40
2017-12-11T08:05:46.580Z,6.30
2017-12-11T08:08:14.021Z,6.40
2017-12-11T08:10:41.463Z,6.40
2017-12-11T08:13:08.951Z,6.40
2017-12-11T08:15:36.384Z,6.40
2017-12-11T08:18:03.862Z,6.40
2017-12-11T08:20:31.310Z,6.30
2017-12-11T08:22:59.534Z,6.40
2017-12-11T08:25:26.984Z,6.40
2017-12-11T08:27:54.480Z,6.50
2017-12-11T08:30:21.947Z,6.40
2017-12-11T08:32:49.506Z,6.40
2017-12-11T08:35:17.734Z,6.40
2017-12-11T08:37:45.195Z,6.40
2017-12-11T08:40:12.716Z,6.40
2017-12-11T08:42:40.873Z,6.40
2017-12-11T08:45:10.053Z,6.50
2017-12-11T08:47:38.273Z,6.50
2017-12-11T08:50:05.733Z,6.40
2017-12-11T08:52:33.180Z,6.40
2017-12-11T08:55:01.406Z,6.50
2017-12-11T08:57:28.872Z,6.50
2017-12-11T08:59:56.363Z,6.50
2017-12-11T09:02:23.839Z,6.60
2017-12-11T09:04:51.317Z,6.70
2017-12-11T09:07:18.773Z,6.80
2017-12-11T09:09:46.259Z,6.70
2017-12-11T09:12:13.701Z,6.70
2017-12-11T09:14:42.020Z,6.60
2017-12-11T09:17:09.455Z,6.70
2017-12-11T09:19:37.464Z,6.70
2017-12-11T09:22:05.703Z,6.60
2017-12-11T09:24:33.158Z,6.60
2017-12-11T09:27:00.622Z,6.60
2017-12-11T09:29:28.053Z,6.60
2017-12-11T09:31:55.527Z,6.60
2017-12-11T09:34:23.001Z,6.60
2017-12-11T09:36:50.484Z,6.60
2017-12-11T09:39:17.930Z,6.60
2017-12-11T09:41:45.869Z,6.70
2017-12-11T09:44:14.107Z,6.60
2017-12-11T09:46:41.554Z,6.60
2017-12-11T09:49:09.009Z,6.60
2017-12-11T09:51:37.238Z,6.60
2017-12-11T09:54:04.691Z,6.60
2017-12-11T09:56:32.212Z,6.60
2017-12-11T09:58:59.664Z,6.60
2017-12-11T10:01:27.120Z,6.60
2017-12-11T10:03:55.343Z,6.70
2017-12-11T10:06:22.820Z,6.70
2017-12-11T10:08:50.284Z,6.60
2017-12-11T10:11:17.879Z,6.60
2017-12-11T10:13:45.350Z,6.60
2017-12-11T10:16:12.806Z,6.70
2017-12-11T10:18:40.244Z,6.60
2017-12-11T10:21:08.473Z,6.70
2017-12-11T10:23:35.912Z,6.70
2017-12-11T10:26:04.133Z,6.80
2017-12-11T10:28:31.621Z,6.80
2017-12-11T10:30:59.084Z,6.90
2017-12-11T10:33:26.527Z,6.90
2017-12-11T10:35:54.770Z,6.80
2017-12-11T10:38:22.204Z,6.80
2017-12-11T10:40:49.647Z,6.90
2017-12-11T10:43:17.122Z,6.90
2017-12-11T10:45:44.586Z,7.00
2017-12-11T10:48:12.058Z,7.00
2017-12-11T10:50:39.483Z,7.10
2017-12-11T10:53:06.953Z,7.00
2017-12-11T10:55:35.180Z,7.00
2017-12-11T10:58:02.611Z,7.00
2017-12-11T11:00:30.836Z,7.00
2017-12-11T11:02:58.319Z,7.00
2017-12-11T11:05:25.783Z,7.10
2017-12-11T11:07:53.222Z,7.10
2017-12-11T11:10:21.435Z,7.10
2017-12-11T11:12:48.888Z,7.10
2017-12-11T11:15:17.112Z,7.30
2017-12-11T11:17:44.598Z,7.30
2017-12-11T11:20:12.163Z,7.20
2017-12-11T11:22:39.604Z,7.30
2017-12-11T11:25:07.835Z,7.30
2017-12-11T11:27:35.276Z,7.30
2017-12-11T11:30:03.512Z,7.40
2017-12-11T11:32:30.985Z,7.40
2017-12-11T11:34:58.424Z,8.00
2017-12-11T11:37:26.654Z,7.80
2017-12-11T11:39:54.127Z,7.80
2017-12-11T11:42:21.598Z,7.70
2017-12-11T11:44:49.051Z,7.60
2017-12-11T11:47:16.513Z,7.60
2017-12-11T11:49:44.723Z,7.60
2017-12-11T11:52:12.196Z,7.60
2017-12-11T11:54:39.641Z,7.50
2017-12-11T11:57:07.871Z,7.50
2017-12-11T11:59:35.453Z,7.50
2017-12-11T12:02:02.893Z,7.60
2017-12-11T12:04:30.352Z,7.60
2017-12-11T12:06:57.790Z,7.70
2017-12-11T12:09:25.250Z,7.80
2017-12-11T12:11:53.446Z,7.80
2017-12-11T12:14:20.903Z,7.80
2017-12-11T12:16:48.340Z,8.00
2017-12-11T12:19:15.804Z,7.90
2017-12-11T12:21:43.240Z,8.00
2017-12-11T12:24:10.703Z,8.00
2017-12-11T12:26:38.248Z,8.00
2017-12-11T12:29:06.466Z,7.90
2017-12-11T12:31:34.693Z,8.00
2017-12-11T12:34:02.136Z,8.00
2017-12-11T12:36:29.627Z,8.10
2017-12-11T12:39:00.833Z,8.00
2017-12-11T12:41:28.297Z,8.20
2017-12-11T12:43:55.765Z,8.20
2017-12-11T12:46:23.220Z,8.20
2017-12-11T12:48:50.676Z,8.10
2017-12-11T12:51:18.104Z,8.00
2017-12-11T12:53:45.552Z,8.10
2017-12-11T12:56:13.013Z,8.10
2017-12-11T12:58:40.493Z,8.00
2017-12-11T13:01:07.955Z,8.10
2017-12-11T13:03:35.438Z,8.10
2017-12-11T13:06:02.893Z,8.10
2017-12-11T13:08:30.356Z,8.10
2017-12-11T13:10:57.963Z,8.10
2017-12-11T13:13:25.421Z,8.20
2017-12-11T13:15:52.860Z,8.10
2017-12-11T13:18:20.335Z,8.20
2017-12-11T13:20:47.764Z,8.30
2017-12-11T13:23:15.235Z,8.20
2017-12-11T13:25:42.665Z,8.20
2017-12-11T13:28:10.135Z,8.20
2017-12-11T13:30:37.597Z,8.30
2017-12-11T13:33:05.060Z,8.40
2017-12-11T13:35:32.519Z,8.50
2017-12-11T13:37:59.952Z,8.50
2017-12-11T13:40:28.178Z,8.50
2017-12-11T13:42:55.654Z,8.50
2017-12-11T13:45:23.096Z,8.50
2017-12-11T13:47:51.323Z,8.50
2017-12-11T13:50:18.767Z,8.50
2017-12-11T13:52:46.255Z,8.60
2017-12-11T13:55:14.296Z,8.60
2017-12-11T13:57:41.756Z,8.60
2017-12-11T14:00:09.270Z,8.70
2017-12-11T14:02:37.488Z,8.70
2017-12-11T14:05:04.952Z,8.70
2017-12-11T14:07:32.421Z,8.50
2017-12-11T14:10:00.675Z,8.60
2017-12-11T14:12:28.811Z,8.50
2017-12-11T14:14:56.260Z,8.60
2017-12-11T14:17:23.724Z,8.60
2017-12-11T14:19:51.176Z,8.60
2017-12-11T14:22:18.634Z,8.50
2017-12-11T14:24:46.079Z,8.40
2017-12-11T14:27:14.297Z,8.40
2017-12-11T14:29:41.740Z,8.40
2017-12-11T14:32:09.972Z,8.50
2017-12-11T14:34:37.420Z,8.50
2017-12-11T14:37:05.641Z,8.50
2017-12-11T14:39:33.085Z,8.50
2017-12-11T14:42:00.549Z,8.50
2017-12-11T14:44:28.782Z,8.60
2017-12-11T14:46:56.249Z,8.60
2017-12-11T14:49:23.716Z,8.60
2017-12-11T14:51:51.900Z,8.70
2017-12-11T14:54:19.360Z,8.70
2017-12-11T14:56:47.562Z,8.80
2017-12-11T14:59:15.017Z,8.70
2017-12-11T15:01:43.718Z,8.70
2017-12-11T15:04:11.964Z,8.70
2017-12-11T15:06:39.412Z,8.70
2017-12-11T15:09:06.875Z,8.70
2017-12-11T15:11:34.373Z,8.80
2017-12-11T15:14:01.940Z,8.80
2017-12-11T15:16:29.375Z,8.80
2017-12-11T15:18:56.846Z,8.80
2017-12-11T15:21:24.271Z,8.80
2017-12-11T15:23:51.717Z,8.60
2017-12-11T15:26:19.959Z,8.50
2017-12-11T15:28:47.433Z,8.50
2017-12-11T15:31:14.888Z,8.60
2017-12-11T15:33:42.357Z,8.60
2017-12-11T15:36:09.813Z,8.60
2017-12-11T15:38:38.019Z,8.80
2017-12-11T15:41:06.114Z,8.80
2017-12-11T15:43:33.546Z,8.80
2017-12-11T15:46:01.732Z,8.80
2017-12-11T15:48:29.788Z,8.70
2017-12-11T15:50:57.252Z,8.70
2017-12-11T15:53:24.699Z,8.80
2017-12-11T15:55:52.129Z,8.80
2017-12-11T15:58:19.692Z,8.80
2017-12-11T16:00:47.125Z,8.80
2017-12-11T16:03:15.362Z,8.70
2017-12-11T16:05:42.793Z,8.70
2017-12-11T16:08:11.027Z,8.90
2017-12-11T16:10:38.477Z,8.80
2017-12-11T16:13:05.971Z,9.00
2017-12-11T16:15:33.421Z,8.90
2017-12-11T16:18:00.858Z,9.00
2017-12-11T16:20:28.323Z,9.00
2017-12-11T16:22:55.788Z,9.00
2017-12-11T16:25:23.248Z,9.10
2017-12-11T16:27:50.694Z,9.10
2017-12-11T16:30:18.166Z,9.10
2017-12-11T16:32:45.603Z,9.10
2017-12-11T16:35:13.072Z,9.00
2017-12-11T16:37:41.203Z,9.10
2017-12-11T16:40:08.677Z,9.10
2017-12-11T16:42:36.128Z,9.10
2017-12-11T16:45:03.645Z,9.10
2017-12-11T16:47:31.107Z,9.10
2017-12-11T16:49:58.565Z,9.10
2017-12-11T16:52:26.789Z,9.20
2017-12-11T16:54:54.270Z,9.20
2017-12-11T16:57:21.753Z,9.10
2017-12-11T16:59:49.216Z,9.00
2017-12-11T17:02:16.730Z,9.00
2017-12-11T17:04:44.182Z,9.00
2017-12-11T17:07:12.359Z,9.00
2017-12-11T17:09:39.800Z,9.00
2017-12-11T17:12:08.036Z,9.00
2017-12-11T17:14:35.509Z,8.90
2017-12-11T17:17:02.992Z,8.90
2017-12-11T17:19:30.461Z,9.00
2017-12-11T17:21:57.928Z,9.00
2017-12-11T17:24:25.450Z,8.90
2017-12-11T17:26:52.939Z,8.90
2017-12-11T17:29:20.477Z,9.00
2017-12-11T17:31:47.968Z,9.00
2017-12-11T17:34:15.989Z,8.90
2017-12-11T17:36:43.499Z,9.00
2017-12-11T17:39:11.022Z,9.00
2017-12-11T17:41:38.508Z,9.00
2017-12-11T17:44:06.712Z,9.00
2017-12-11T17:46:34.319Z,9.00
2017-12-11T17:49:01.797Z,9.00
2017-12-11T17:51:29.778Z,9.00
2017-12-11T17:53:57.229Z,9.00
2017-12-11T17:56:25.468Z,9.10
2017-12-11T17:58:52.916Z,9.00
2017-12-11T18:01:20.417Z,9.00
2017-12-11T18:03:47.883Z,9.10
2017-12-11T18:06:15.952Z,9.20
2017-12-11T18:08:43.524Z,9.10
2017-12-11T18:11:11.064Z,9.20
2017-12-11T18:13:38.571Z,9.20
2017-12-11T18:16:06.007Z,9.20
2017-12-11T18:18:33.570Z,9.20
2017-12-11T18:21:01.005Z,9.20
2017-12-11T18:23:28.480Z,9.20
2017-12-11T18:25:55.936Z,9.20
2017-12-11T18:28:24.182Z,9.20
2017-12-11T18:30:51.628Z,9.20
2017-12-11T18:33:19.102Z,9.20
2017-12-11T18:35:46.564Z,9.20
2017-12-11T18:38:14.028Z,9.20
2017-12-11T18:40:41.546Z,9.20
2017-12-11T18:43:09.000Z,9.20
2017-12-11T18:45:36.475Z,9.20
2017-12-11T18:48:03.964Z,9.20
2017-12-11T18:50:31.521Z,9.20
2017-12-11T18:52:58.968Z,9.20
2017-12-11T18:55:27.250Z,9.10
2017-12-11T18:57:54.697Z,9.10
2017-12-11T19:00:22.157Z,9.10
2017-12-11T19:02:49.692Z,9.20
2017-12-11T19:05:17.118Z,9.10
2017-12-11T19:07:44.613Z,9.00
2017-12-11T19:10:12.192Z,9.10
2017-12-11T19:12:39.676Z,9.10
2017-12-11T19:15:07.125Z,9.10
2017-12-11T19:17:35.296Z,9.10
2017-12-11T19:20:02.744Z,9.10
2017-12-11T19:22:31.054Z,9.10
2017-12-11T19:24:58.571Z,9.10
2017-12-11T19:27:26.144Z,9.00
2017-12-11T19:29:53.662Z,9.00
2017-12-11T19:32:21.364Z,9.00
2017-12-11T19:34:48.863Z,9.00
2017-12-11T19:37:16.333Z,9.00
2017-12-11T19:39:43.833Z,9.00
2017-12-11T19:42:11.594Z,9.00
2017-12-11T19:44:39.349Z,9.00
2017-12-11T19:47:07.582Z,9.00
2017-12-11T19:49:35.346Z,8.90
2017-12-11T19:52:02.807Z,8.90
2017-12-11T19:54:30.265Z,8.90
2017-12-11T19:56:57.980Z,8.80
2017-12-11T19:59:25.459Z,8.80
2017-12-11T20:01:52.952Z,8.80
2017-12-11T20:04:20.707Z,8.80
2017-12-11T20:06:48.517Z,8.90
2017-12-11T20:09:17.018Z,8.90
2017-12-11T20:11:45.768Z,8.90
2017-12-11T20:14:13.509Z,8.90
2017-12-11T20:16:42.052Z,9.00
2017-12-11T20:19:09.562Z,8.90
2017-12-11T20:21:37.330Z,9.00
2017-12-11T20:24:05.090Z,9.00
2017-12-11T20:26:32.900Z,9.00
2017-12-11T20:29:00.966Z,9.00
2017-12-11T20:31:28.716Z,9.00
2017-12-11T20:33:56.269Z,9.00
2017-12-11T20:36:24.004Z,8.90
2017-12-11T20:38:52.376Z,8.90
2017-12-11T20:41:19.831Z,8.90
2017-12-11T20:43:47.535Z,8.90
2017-12-11T20:46:15.295Z,8.90
2017-12-11T20:48:43.541Z,8.90
2017-12-11T20:51:10.984Z,8.80
2017-12-11T20:53:39.226Z,8.80
2017-12-11T20:56:06.684Z,8.90
2017-12-11T20:58:34.146Z,8.80
2017-12-11T21:01:01.645Z,8.90
2017-12-11T21:03:29.132Z,8.90
2017-12-11T21:05:56.599Z,8.90
2017-12-11T21:08:24.029Z,8.80
2017-12-11T21:10:52.251Z,8.90
2017-12-11T21:13:19.724Z,8.80
2017-12-11T21:15:47.182Z,8.90
2017-12-11T21:18:14.678Z,8.90
2017-12-11T21:20:42.134Z,8.90
2017-12-11T21:23:09.625Z,8.90
2017-12-11T21:25:37.059Z,8.90
2017-12-11T21:28:05.901Z,8.90
2017-12-11T21:30:33.343Z,8.90
2017-12-11T21:33:01.572Z,8.90
2017-12-11T21:35:29.017Z,8.90
2017-12-11T21:37:57.136Z,8.80
2017-12-11T21:40:25.277Z,8.80
2017-12-11T21:42:52.817Z,8.80
2017-12-11T21:45:20.295Z,8.70
2017-12-11T21:47:47.800Z,8.70
2017-12-11T21:50:15.314Z,8.60
2017-12-11T21:52:43.608Z,8.60
2017-12-11T21:55:11.795Z,8.50
2017-12-11T21:57:39.275Z,8.40
2017-12-11T22:00:06.801Z,8.30
2017-12-11T22:02:34.330Z,8.20
2017-12-11T22:05:01.810Z,8.00
2017-12-11T22:07:29.257Z,7.90
2017-12-11T22:09:57.504Z,7.70
2017-12-11T22:12:24.970Z,7.70
2017-12-11T22:14:52.602Z,7.60
2017-12-11T22:17:20.951Z,7.50
2017-12-11T22:19:48.377Z,7.50
2017-12-11T22:22:17.471Z,7.40
2017-12-11T22:24:44.932Z,7.40
2017-12-11T22:27:12.419Z,7.40
2017-12-11T22:29:39.889Z,7.30
2017-12-11T22:32:07.416Z,7.30
2017-12-11T22:34:36.000Z,7.30
2017-12-11T22:37:03.536Z,7.40
2017-12-11T22:39:30.992Z,7.40
2017-12-11T22:41:58.430Z,7.40
2017-12-11T22:44:25.912Z,7.40
2017-12-11T22:46:53.358Z,7.40
2017-12-11T22:49:21.583Z,7.40
2017-12-11T22:51:49.033Z,7.40
2017-12-11T22:54:17.233Z,7.40
2017-12-11T22:56:44.680Z,7.40
2017-12-11T22:59:12.160Z,7.40
2017-12-11T23:01:39.623Z,7.50
2017-12-11T23:04:07.103Z,7.50
2017-12-11T23:06:34.597Z,7.50
2017-12-11T23:09:02.084Z,7.50
2017-12-11T23:11:30.284Z,7.40
2017-12-11T23:13:57.805Z,7.40
2017-12-11T23:16:25.259Z,7.50
2017-12-11T23:18:52.702Z,7.40
2017-12-11T23:21:20.916Z,7.40
2017-12-11T23:23:48.371Z,7.40
2017-12-11T23:26:15.837Z,7.40
2017-12-11T23:28:44.048Z,7.30
2017-12-11T23:31:11.515Z,7.30
2017-12-11T23:33:38.976Z,7.40
2017-12-11T23:36:07.192Z,7.40
2017-12-11T23:38:34.663Z,7.40
2017-12-11T23:41:02.115Z,7.40
2017-12-11T23:43:30.332Z,7.30
2017-12-11T23:45:58.373Z,7.30
2017-12-11T23:48:25.832Z,7.30
2017-12-11T23:50:53.288Z,7.40
2017-12-11T23:53:20.771Z,7.40
2017-12-11T23:55:48.229Z,7.40
2017-12-11T23:58:15.678Z,7.40
